createdAt,value
2022-08-07T00:00:54.080Z,7.03
2022-08-07T00:03:25.713Z,6.77
2022-08-07T00:05:54.135Z,10.03
2022-08-07T00:08:22.829Z,6.33
2022-08-07T00:10:58.368Z,6.67
2022-08-07T00:13:27.129Z,7.00
2022-08-07T00:15:56.954Z,8.83
2022-08-07T00:18:26.227Z,8.10
2022-08-07T00:20:54.920Z,7.87
2022-08-07T00:23:25.133Z,8.40
2022-08-07T00:25:59.196Z,8.73
2022-08-07T00:28:33.561Z,8.63
2022-08-07T00:31:06.421Z,9.80
2022-08-07T00:33:41.692Z,8.47
2022-08-07T00:36:10.327Z,8.20
2022-08-07T00:38:39.067Z,10.10
2022-08-07T00:41:09.907Z,9.30
2022-08-07T00:44:01.402Z,10.87
2022-08-07T00:46:34.128Z,9.43
2022-08-07T00:49:03.367Z,8.87
2022-08-07T00:51:57.054Z,8.57
2022-08-07T00:54:20.244Z,8.67
2022-08-07T00:56:50.817Z,12.37
2022-08-07T00:59:20.029Z,8.80
2022-08-07T01:02:02.843Z,8.80
2022-08-07T01:04:37.445Z,10.67
2022-08-07T01:07:11.936Z,9.40
2022-08-07T01:10:03.921Z,8.47
2022-08-07T01:12:30.953Z,8.30
2022-08-07T01:15:00.931Z,7.93
2022-08-07T01:17:30.987Z,8.60
2022-08-07T01:20:03.639Z,8.33
2022-08-07T01:22:33.293Z,8.27
2022-08-07T01:25:02.420Z,8.03
2022-08-07T01:27:51.307Z,8.97
2022-08-07T01:30:19.851Z,9.07
2022-08-07T01:32:55.326Z,9.17
2022-08-07T01:35:24.472Z,8.57
2022-08-07T01:37:54.288Z,9.03
2022-08-07T01:40:22.642Z,9.47
2022-08-07T01:42:58.953Z,8.53
2022-08-07T01:45:36.246Z,9.23
2022-08-07T01:48:29.168Z,9.40
2022-08-07T01:50:57.293Z,8.77
2022-08-07T01:54:11.954Z,8.87
2022-08-07T01:56:18.970Z,9.77
2022-08-07T01:58:51.132Z,14.67
2022-08-07T02:01:58.655Z,11.57
2022-08-07T02:04:13.000Z,11.43
2022-08-07T02:06:41.380Z,10.47
2022-08-07T02:09:52.198Z,10.57
2022-08-07T02:12:17.838Z,10.23
2022-08-07T02:14:47.150Z,10.70
2022-08-07T02:17:31.545Z,10.33
2022-08-07T02:20:05.156Z,9.53
2022-08-07T02:22:40.982Z,12.17
2022-08-07T02:25:17.389Z,10.60
2022-08-07T02:27:52.015Z,10.27
2022-08-07T02:30:21.530Z,10.33
2022-08-07T02:33:00.761Z,10.30
2022-08-07T02:36:29.576Z,10.80
2022-08-07T02:38:34.793Z,12.87
2022-08-07T02:41:04.677Z,10.97
2022-08-07T02:43:33.159Z,10.20
2022-08-07T02:46:02.504Z,11.13
2022-08-07T02:48:31.108Z,10.73
2022-08-07T02:50:59.783Z,10.60
2022-08-07T02:53:30.479Z,10.83
2022-08-07T02:56:06.514Z,11.00
2022-08-07T02:58:47.345Z,10.77
2022-08-07T03:01:19.045Z,10.90
2022-08-07T03:04:07.802Z,11.27
2022-08-07T03:06:44.697Z,10.80
2022-08-07T03:09:14.390Z,10.67
2022-08-07T03:11:52.613Z,10.90
2022-08-07T03:14:26.275Z,11.23
2022-08-07T03:16:56.582Z,10.40
2022-08-07T03:19:24.921Z,10.87
2022-08-07T03:21:57.400Z,10.63
2022-08-07T03:24:28.081Z,10.73
2022-08-07T03:26:59.504Z,11.07
2022-08-07T03:29:28.785Z,10.33
2022-08-07T03:31:57.306Z,10.63
2022-08-07T03:34:27.307Z,10.73
2022-08-07T03:36:57.325Z,10.80
2022-08-07T03:39:59.673Z,10.63
2022-08-07T03:42:15.971Z,10.07
2022-08-07T03:44:47.323Z,10.73
2022-08-07T03:47:22.691Z,10.77
2022-08-07T03:49:53.342Z,11.60
2022-08-07T03:52:26.861Z,13.10
2022-08-07T03:54:57.374Z,12.60
2022-08-07T03:58:35.058Z,13.10
2022-08-07T04:00:29.307Z,11.57
2022-08-07T04:02:59.268Z,11.33
2022-08-07T04:05:28.687Z,11.90
2022-08-07T04:08:08.099Z,12.37
2022-08-07T04:10:39.330Z,12.27
2022-08-07T04:13:15.368Z,12.97
2022-08-07T04:15:43.894Z,12.70
2022-08-07T04:18:56.178Z,11.50
2022-08-07T04:21:02.939Z,11.67
2022-08-07T04:23:43.639Z,12.73
2022-08-07T04:26:21.986Z,13.20
2022-08-07T04:28:51.645Z,12.90
2022-08-07T04:31:38.355Z,12.03
2022-08-07T04:34:16.445Z,12.27
2022-08-07T04:36:45.513Z,12.53
2022-08-07T04:39:20.021Z,12.77
2022-08-07T04:41:54.100Z,14.10
2022-08-07T04:44:23.707Z,13.80
2022-08-07T04:47:04.836Z,13.23
2022-08-07T04:49:57.468Z,12.20
2022-08-07T04:52:29.929Z,11.90
2022-08-07T04:55:00.953Z,13.00
2022-08-07T04:58:14.161Z,11.90
2022-08-07T05:00:30.382Z,12.70
2022-08-07T05:03:03.488Z,11.57
2022-08-07T05:05:52.686Z,11.07
2022-08-07T05:08:59.761Z,12.63
2022-08-07T05:11:24.220Z,11.80
2022-08-07T05:14:53.975Z,10.43
2022-08-07T05:16:47.676Z,11.03
2022-08-07T05:19:32.718Z,10.83
2022-08-07T05:22:10.457Z,12.33
2022-08-07T05:24:39.478Z,11.67
2022-08-07T05:27:14.499Z,12.93
2022-08-07T05:29:59.183Z,13.07
2022-08-07T05:32:28.745Z,12.90
2022-08-07T05:34:57.005Z,13.63
2022-08-07T05:37:25.691Z,15.20
2022-08-07T05:40:17.279Z,15.47
2022-08-07T05:42:42.247Z,14.13
2022-08-07T05:45:28.249Z,14.50
2022-08-07T05:48:14.103Z,14.13
2022-08-07T05:50:42.904Z,14.90
2022-08-07T05:54:12.780Z,14.53
2022-08-07T05:56:02.440Z,11.73
2022-08-07T05:58:36.415Z,13.33
2022-08-07T06:01:06.022Z,13.33
2022-08-07T06:03:56.292Z,11.47
2022-08-07T06:06:29.388Z,12.93
2022-08-07T06:09:01.207Z,11.97
2022-08-07T06:11:33.920Z,12.40
2022-08-07T06:14:11.822Z,13.07
2022-08-07T06:16:41.967Z,11.17
2022-08-07T06:19:17.932Z,11.37
2022-08-07T06:22:15.241Z,13.43
2022-08-07T06:24:57.870Z,10.10
2022-08-07T06:27:59.819Z,10.50
2022-08-07T06:30:31.996Z,10.40
2022-08-07T06:33:03.945Z,9.87
2022-08-07T06:35:45.543Z,9.90
2022-08-07T06:38:20.048Z,8.33
2022-08-07T06:40:51.105Z,9.63
2022-08-07T06:43:22.418Z,10.27
2022-08-07T06:45:51.732Z,9.10
2022-08-07T06:48:24.671Z,8.57
2022-08-07T06:50:55.294Z,9.10
2022-08-07T06:55:28.516Z,8.47
2022-08-07T06:56:14.765Z,7.23
2022-08-07T07:00:14.545Z,8.20
2022-08-07T07:01:33.258Z,7.67
2022-08-07T07:04:28.147Z,7.37
2022-08-07T07:07:10.375Z,7.30
2022-08-07T07:09:48.214Z,9.60
2022-08-07T07:12:30.748Z,10.37
2022-08-07T07:15:03.206Z,8.17
2022-08-07T07:17:39.136Z,7.97
2022-08-07T07:20:16.611Z,9.40
2022-08-07T07:24:08.735Z,8.13
2022-08-07T07:26:34.706Z,8.60
2022-08-07T07:28:42.036Z,8.27
2022-08-07T07:31:21.574Z,10.23
2022-08-07T07:33:56.507Z,7.93
2022-08-07T07:36:32.249Z,7.63
2022-08-07T07:39:03.418Z,8.37
2022-08-07T07:41:50.904Z,11.50
2022-08-07T07:44:25.776Z,8.83
2022-08-07T07:47:04.366Z,8.73
2022-08-07T07:50:34.369Z,8.43
2022-08-07T07:52:31.762Z,9.73
2022-08-07T07:55:01.496Z,6.67
2022-08-07T07:57:51.843Z,7.23
2022-08-07T08:00:29.949Z,6.37
2022-08-07T08:03:06.710Z,6.77
2022-08-07T08:05:50.519Z,5.57
2022-08-07T08:08:35.555Z,5.43
2022-08-07T08:11:09.005Z,7.37
2022-08-07T08:13:53.100Z,7.17
2022-08-07T08:18:36.807Z,6.57
2022-08-07T08:19:17.720Z,7.20
2022-08-07T08:22:20.762Z,7.33
2022-08-07T08:25:42.271Z,4.63
2022-08-07T08:28:08.798Z,5.50
2022-08-07T08:30:42.510Z,6.10
2022-08-07T08:33:16.076Z,5.97
2022-08-07T08:35:49.788Z,5.87
2022-08-07T08:38:19.750Z,6.10
2022-08-07T08:40:51.425Z,6.43
2022-08-07T08:43:32.019Z,5.30
2022-08-07T08:46:13.314Z,5.40
2022-08-07T08:48:44.574Z,7.80
2022-08-07T08:51:29.657Z,5.73
2022-08-07T08:54:08.097Z,5.10
2022-08-07T08:56:38.839Z,5.43
2022-08-07T08:59:21.378Z,5.73
2022-08-07T09:01:54.484Z,5.63
2022-08-07T09:04:30.632Z,5.43
2022-08-07T09:07:02.365Z,4.87
2022-08-07T09:09:38.598Z,5.53
2022-08-07T09:12:30.544Z,5.43
2022-08-07T09:16:24.604Z,5.70
2022-08-07T09:18:36.655Z,10.40
2022-08-07T09:21:13.931Z,5.90
2022-08-07T09:24:31.664Z,4.13
2022-08-07T09:26:57.282Z,4.07
2022-08-07T09:30:04.954Z,6.13
2022-08-07T09:32:26.318Z,4.47
2022-08-07T09:35:04.671Z,5.23
2022-08-07T09:37:53.958Z,6.70
2022-08-07T09:40:25.238Z,4.13
2022-08-07T09:42:58.139Z,5.77
2022-08-07T09:47:50.042Z,3.50
2022-08-07T09:48:50.329Z,2.97
2022-08-07T09:52:16.673Z,6.60
2022-08-07T09:54:34.731Z,3.47
2022-08-07T09:57:30.152Z,5.67
2022-08-07T10:00:09.243Z,3.07
2022-08-07T10:04:05.292Z,4.90
2022-08-07T10:06:28.329Z,4.77
2022-08-07T10:09:34.373Z,4.20
2022-08-07T10:12:21.443Z,4.43
2022-08-07T10:15:06.331Z,3.47
2022-08-07T10:20:39.768Z,2.90
2022-08-07T10:24:06.927Z,5.10
2022-08-07T10:26:31.970Z,3.77
2022-08-07T10:29:32.055Z,2.63
2022-08-07T10:32:50.960Z,2.60
2022-08-07T10:35:20.261Z,5.63
2022-08-07T10:38:15.451Z,3.80
2022-08-07T10:40:48.900Z,5.30
2022-08-07T10:43:19.496Z,5.77
2022-08-07T10:46:05.690Z,4.17
2022-08-07T10:48:37.766Z,3.63
2022-08-07T10:51:16.975Z,3.77
2022-08-07T10:54:04.282Z,2.80
2022-08-07T10:56:37.876Z,3.45
2022-08-07T10:59:11.048Z,4.07
2022-08-07T11:01:51.405Z,4.53
2022-08-07T11:04:39.944Z,5.07
2022-08-07T11:07:14.839Z,2.88
2022-08-07T11:10:08.798Z,3.80
2022-08-07T11:12:43.313Z,2.58
2022-08-07T11:15:17.306Z,4.53
2022-08-07T11:17:49.685Z,4.68
2022-08-07T11:20:24.575Z,6.63
2022-08-07T11:22:57.173Z,2.67
2022-08-07T11:25:29.538Z,3.90
2022-08-07T11:28:04.289Z,3.42
2022-08-07T11:30:42.027Z,5.45
2022-08-07T11:33:14.116Z,2.47
2022-08-07T11:36:00.222Z,2.85
2022-08-07T11:38:31.677Z,2.55
2022-08-07T11:41:04.480Z,5.93
2022-08-07T11:43:54.989Z,8.90
2022-08-07T11:46:36.741Z,4.68
2022-08-07T11:50:25.293Z,3.25
2022-08-07T11:52:41.312Z,3.72
2022-08-07T11:55:18.936Z,5.25
2022-08-07T11:58:16.118Z,3.60
2022-08-07T12:01:00.158Z,4.20
2022-08-07T12:03:52.107Z,4.03
2022-08-07T12:06:37.269Z,3.00
2022-08-07T12:09:16.654Z,3.50
2022-08-07T12:12:09.653Z,6.05
2022-08-07T12:14:46.243Z,7.32
2022-08-07T12:17:25.755Z,6.05
2022-08-07T12:20:04.163Z,2.47
2022-08-07T12:22:55.968Z,4.78
2022-08-07T12:26:03.053Z,2.63
2022-08-07T12:28:49.811Z,3.80
2022-08-07T12:31:25.726Z,5.10
2022-08-07T12:34:13.874Z,3.03
2022-08-07T12:36:42.750Z,2.63
2022-08-07T12:39:43.579Z,4.53
2022-08-07T12:42:07.106Z,4.20
2022-08-07T12:44:35.543Z,2.70
2022-08-07T12:47:11.206Z,2.63
2022-08-07T12:49:51.041Z,1.80
2022-08-07T12:52:23.353Z,3.45
2022-08-07T12:55:05.215Z,3.10
2022-08-07T12:58:00.273Z,2.53
2022-08-07T13:00:32.498Z,9.85
2022-08-07T13:03:59.055Z,2.90
2022-08-07T13:06:27.789Z,3.03
2022-08-07T13:09:00.723Z,3.15
2022-08-07T13:12:03.047Z,2.85
2022-08-07T13:14:33.493Z,2.92
2022-08-07T13:17:06.572Z,5.28
2022-08-07T13:19:50.426Z,4.65
2022-08-07T13:22:27.764Z,3.90
2022-08-07T13:25:00.153Z,2.90
2022-08-07T13:28:05.540Z,3.25
2022-08-07T13:30:43.500Z,3.65
2022-08-07T13:34:11.680Z,3.60
2022-08-07T13:36:05.702Z,5.65
2022-08-07T13:38:39.312Z,3.65
2022-08-07T13:41:14.003Z,4.10
2022-08-07T13:43:43.542Z,2.88
2022-08-07T13:46:28.864Z,4.38
2022-08-07T13:49:01.601Z,2.58
2022-08-07T13:52:04.851Z,3.90
2022-08-07T13:54:23.822Z,3.85
2022-08-07T13:56:59.602Z,2.15
2022-08-07T13:59:31.471Z,1.85
2022-08-07T14:02:07.994Z,3.25
2022-08-07T14:04:50.149Z,3.25
2022-08-07T14:07:26.058Z,2.40
2022-08-07T14:10:12.498Z,4.55
2022-08-07T14:12:54.170Z,2.08
2022-08-07T14:15:32.151Z,5.05
2022-08-07T14:18:27.226Z,3.17
2022-08-07T14:20:54.658Z,5.78
2022-08-07T14:23:58.908Z,3.50
2022-08-07T14:26:30.006Z,2.72
2022-08-07T14:29:08.565Z,3.70
2022-08-07T14:31:42.918Z,2.95
2022-08-07T14:34:25.826Z,2.20
2022-08-07T14:36:56.251Z,3.47
2022-08-07T14:40:17.666Z,2.65
2022-08-07T14:42:19.970Z,5.05
2022-08-07T14:44:59.931Z,3.40
2022-08-07T14:47:43.161Z,4.20
2022-08-07T14:50:18.719Z,3.53
2022-08-07T14:55:55.507Z,2.95
2022-08-07T14:58:26.240Z,5.55
2022-08-07T15:00:55.728Z,3.63
2022-08-07T15:03:53.016Z,3.67
2022-08-07T15:06:22.036Z,4.65
2022-08-07T15:08:54.875Z,4.03
2022-08-07T15:14:17.764Z,3.33
2022-08-07T15:16:54.978Z,3.38
2022-08-07T15:25:17.550Z,2.88
2022-08-07T15:28:30.756Z,3.35
2022-08-07T15:31:04.660Z,2.88
2022-08-07T15:33:33.651Z,3.35
2022-08-07T15:36:05.407Z,2.55
2022-08-07T15:38:58.753Z,4.13
2022-08-07T15:42:46.029Z,3.72
2022-08-07T15:44:15.260Z,4.28
2022-08-07T15:46:51.892Z,3.28
2022-08-07T15:49:25.620Z,3.78
2022-08-07T15:52:13.674Z,4.20
2022-08-07T15:54:43.992Z,3.78
2022-08-07T15:57:40.119Z,5.95
2022-08-07T16:00:06.370Z,3.03
2022-08-07T16:02:46.538Z,3.58
2022-08-07T16:05:17.628Z,7.55
2022-08-07T16:08:31.786Z,2.72
2022-08-07T16:10:37.747Z,2.20
2022-08-07T16:13:58.032Z,2.90
2022-08-07T16:16:47.965Z,2.70
2022-08-07T16:19:43.166Z,3.22
2022-08-07T16:22:55.084Z,5.07
2022-08-07T16:25:54.423Z,4.97
2022-08-07T16:30:06.617Z,6.40
2022-08-07T16:31:58.292Z,6.93
2022-08-07T16:34:38.691Z,6.80
2022-08-07T16:38:06.274Z,3.53
2022-08-07T16:41:04.543Z,6.75
2022-08-07T16:44:06.157Z,5.03
2022-08-07T16:47:14.007Z,4.60
2022-08-07T16:50:28.932Z,4.43
2022-08-07T16:53:48.154Z,4.00
2022-08-07T16:56:00.248Z,4.13
2022-08-07T16:59:02.202Z,4.30
2022-08-07T17:01:42.792Z,3.55
2022-08-07T17:04:24.748Z,3.63
2022-08-07T17:07:03.315Z,2.65
2022-08-07T17:10:06.224Z,2.92
2022-08-07T17:12:37.819Z,2.60
2022-08-07T17:15:17.332Z,6.28
2022-08-07T17:17:56.691Z,3.85
2022-08-07T17:20:33.128Z,2.80
2022-08-07T17:23:08.818Z,2.50
2022-08-07T17:25:52.055Z,3.80
2022-08-07T17:28:24.471Z,2.97
2022-08-07T17:30:58.659Z,2.53
2022-08-07T17:34:08.366Z,2.63
2022-08-07T17:36:21.099Z,2.20
2022-08-07T17:38:58.495Z,2.20
2022-08-07T17:42:03.955Z,2.40
2022-08-07T17:44:33.603Z,3.35
2022-08-07T17:47:16.898Z,3.45
2022-08-07T17:49:52.095Z,2.58
2022-08-07T17:52:30.675Z,4.50
2022-08-07T17:55:05.406Z,2.70
2022-08-07T17:57:58.665Z,3.63
2022-08-07T18:00:34.646Z,2.47
2022-08-07T18:03:19.770Z,3.40
2022-08-07T18:06:01.883Z,5.70
2022-08-07T18:08:34.368Z,2.70
2022-08-07T18:12:07.303Z,2.83
2022-08-07T18:14:01.614Z,5.43
2022-08-07T18:16:33.449Z,2.40
2022-08-07T18:21:08.187Z,2.27
2022-08-07T18:22:14.874Z,2.27
2022-08-07T18:24:51.001Z,4.23
2022-08-07T18:27:49.504Z,4.27
2022-08-07T18:30:32.401Z,4.47
2022-08-07T18:33:30.906Z,5.60
2022-08-07T18:36:06.111Z,2.27
2022-08-07T18:38:56.298Z,1.97
2022-08-07T18:41:45.614Z,4.07
2022-08-07T18:44:45.972Z,2.50
2022-08-07T18:47:36.013Z,4.37
2022-08-07T18:50:39.194Z,3.05
2022-08-07T18:53:16.328Z,2.10
2022-08-07T18:55:56.167Z,1.93
2022-08-07T18:58:34.697Z,3.30
2022-08-07T19:01:06.934Z,2.07
2022-08-07T19:03:41.005Z,2.33
2022-08-07T19:06:16.479Z,2.90
2022-08-07T19:08:58.899Z,4.73
2022-08-07T19:11:39.485Z,3.17
2022-08-07T19:14:51.295Z,4.53
2022-08-07T19:17:55.726Z,5.03
2022-08-07T19:20:29.535Z,3.10
2022-08-07T19:23:18.654Z,3.73
2022-08-07T19:26:23.812Z,3.37
2022-08-07T19:30:55.522Z,3.03
2022-08-07T19:31:58.540Z,3.17
2022-08-07T19:34:34.490Z,2.73
2022-08-07T19:37:17.645Z,2.43
2022-08-07T19:39:57.235Z,3.43
2022-08-07T19:42:26.782Z,3.57
2022-08-07T19:45:10.263Z,2.30
2022-08-07T19:47:42.005Z,3.33
2022-08-07T19:50:41.152Z,3.30
2022-08-07T19:53:00.940Z,2.60
2022-08-07T19:55:58.034Z,6.03
2022-08-07T19:58:28.088Z,3.57
2022-08-07T20:00:57.617Z,3.13
2022-08-07T20:03:33.755Z,4.50
2022-08-07T20:06:04.625Z,2.50
2022-08-07T20:08:34.769Z,4.17
2022-08-07T20:11:10.171Z,2.83
2022-08-07T20:13:43.770Z,2.97
2022-08-07T20:16:32.180Z,3.20
2022-08-07T20:19:04.564Z,2.80
2022-08-07T20:21:41.987Z,2.77
2022-08-07T20:24:18.358Z,3.70
2022-08-07T20:26:50.128Z,4.20
2022-08-07T20:29:48.855Z,2.70
2022-08-07T20:32:22.757Z,3.17
2022-08-07T20:34:56.658Z,3.07
2022-08-07T20:37:26.089Z,3.83
2022-08-07T20:40:02.200Z,3.70
2022-08-07T20:42:33.389Z,5.40
2022-08-07T20:45:02.238Z,3.53
2022-08-07T20:47:56.447Z,3.87
2022-08-07T20:50:23.615Z,2.27
2022-08-07T20:52:53.032Z,4.57
2022-08-07T20:55:23.843Z,5.10
2022-08-07T20:58:03.265Z,3.07
2022-08-07T21:00:42.205Z,5.30
2022-08-07T21:03:12.005Z,5.33
2022-08-07T21:05:54.779Z,2.90
2022-08-07T21:08:32.417Z,4.63
2022-08-07T21:11:11.861Z,5.13
2022-08-07T21:13:57.151Z,3.50
2022-08-07T21:16:31.513Z,3.73
2022-08-07T21:18:59.760Z,4.50
2022-08-07T21:21:33.273Z,5.63
2022-08-07T21:24:28.576Z,4.20
2022-08-07T21:27:02.122Z,4.73
2022-08-07T21:29:39.760Z,4.60
2022-08-07T21:32:48.622Z,5.00
2022-08-07T21:35:14.087Z,4.97
2022-08-07T21:37:58.887Z,4.27
2022-08-07T21:40:36.092Z,6.00
2022-08-07T21:43:10.626Z,5.27
2022-08-07T21:46:08.946Z,6.50
2022-08-07T21:48:41.472Z,5.53
2022-08-07T21:51:19.946Z,4.90
2022-08-07T21:54:05.775Z,7.77
2022-08-07T21:56:47.070Z,5.17
2022-08-07T21:59:29.894Z,4.83
2022-08-07T22:02:07.711Z,5.73
2022-08-07T22:04:51.207Z,6.57
2022-08-07T22:07:23.197Z,6.07
2022-08-07T22:10:07.325Z,3.93
2022-08-07T22:12:38.403Z,6.73
2022-08-07T22:16:42.711Z,3.93
2022-08-07T22:18:02.962Z,4.90
2022-08-07T22:20:38.430Z,6.67
2022-08-07T22:23:16.908Z,5.90
2022-08-07T22:26:06.020Z,4.20
2022-08-07T22:28:38.626Z,5.53
2022-08-07T22:31:10.906Z,7.80
2022-08-07T22:33:56.665Z,6.00
2022-08-07T22:36:31.101Z,6.37
2022-08-07T22:39:02.599Z,6.27
2022-08-07T22:42:10.590Z,6.70
2022-08-07T22:44:24.936Z,6.30
2022-08-07T22:47:19.363Z,6.70
2022-08-07T22:50:20.720Z,4.87
2022-08-07T22:54:07.501Z,6.00
2022-08-07T22:56:08.841Z,6.23
2022-08-07T22:59:32.584Z,5.80
2022-08-07T23:02:05.628Z,6.43
2022-08-07T23:04:57.773Z,6.30
2022-08-07T23:07:41.967Z,5.43
2022-08-07T23:10:37.677Z,6.23
2022-08-07T23:13:29.250Z,5.60
2022-08-07T23:16:44.570Z,5.23
2022-08-07T23:19:13.985Z,7.43
2022-08-07T23:21:45.313Z,5.07
2022-08-07T23:24:35.025Z,4.73
2022-08-07T23:27:34.496Z,5.80
2022-08-07T23:30:39.172Z,8.63
2022-08-07T23:34:22.816Z,10.43
2022-08-07T23:36:22.919Z,6.90
2022-08-07T23:39:00.388Z,6.63
2022-08-07T23:41:47.722Z,7.03
2022-08-07T23:44:51.422Z,10.17
2022-08-07T23:47:24.557Z,8.60
2022-08-07T23:50:05.482Z,8.00
2022-08-07T23:53:05.780Z,6.97
2022-08-07T23:55:52.548Z,9.97
2022-08-07T23:58:24.641Z,6.27
